Time;durP1;ratioP1;P1;durP2;ratioP2;P2;SDS_P1;SDS_P2;PMS_P1;PMS_P2;Temp;Humidity;BMP_temperature;BMP_pressure;BME280_temperature;BME280_humidity;BME280_pressure;Samples;Min_cycle;Max_cycle;Signal;HPM_P1;HPM_P2
2022/07/29 00:02:12;;;;;;;0.70;0.50;;;;;;;17.52;72.51;101338.22;5033844;28;20072;-68
2022/07/29 00:04:38;;;;;;;0.60;0.40;;;;;;;17.42;73.26;101330.03;5033937;28;20091;-68
2022/07/29 00:07:04;;;;;;;0.73;0.40;;;;;;;17.46;73.25;101328.84;5032899;28;20088;-68
2022/07/29 00:09:30;;;;;;;0.40;0.40;;;;;;;17.46;73.39;101331.56;5032971;28;20049;-68
2022/07/29 00:11:59;;;;;;;1.20;0.47;;;;;;;17.43;73.39;101324.19;5051098;28;20064;-68
2022/07/29 00:14:25;;;;;;;1.60;0.57;;;;;;;17.45;73.39;101327.31;5052754;28;20083;-68
2022/07/29 00:16:52;;;;;;;1.13;0.70;;;;;;;17.40;73.32;101330.38;5053245;28;20045;-68
2022/07/29 00:19:17;;;;;;;0.65;0.50;;;;;;;17.35;73.44;101333.47;5050174;28;20037;-68
2022/07/29 00:21:43;;;;;;;0.55;0.40;;;;;;;17.31;73.47;101332.69;5034123;28;20043;-68
2022/07/29 00:24:08;;;;;;;0.90;0.47;;;;;;;17.38;73.09;101329.97;5033918;28;20504;-68
2022/07/29 00:26:34;;;;;;;0.32;0.25;;;;;;;17.33;73.42;101326.84;5031861;28;20037;-68
2022/07/29 00:29:02;;;;;;;0.70;0.32;;;;;;;17.31;73.07;101321.00;5035272;28;20025;-69
2022/07/29 00:31:28;;;;;;;2.75;0.45;;;;;;;17.23;73.11;101320.22;5052304;28;20071;-68
2022/07/29 00:33:54;;;;;;;1.38;0.52;;;;;;;17.33;72.06;101314.03;5046922;28;20056;-68
2022/07/29 00:36:20;;;;;;;1.08;0.50;;;;;;;17.35;71.78;101316.34;5031604;28;20406;-68
2022/07/29 00:38:47;;;;;;;4.03;0.52;;;;;;;17.35;71.53;101314.41;5043761;28;20060;-68
2022/07/29 00:41:13;;;;;;;0.90;0.32;;;;;;;17.29;71.93;101307.78;5053187;28;20037;-68
2022/07/29 00:43:39;;;;;;;1.05;0.82;;;;;;;17.22;72.31;101307.78;5053151;28;20033;-68
2022/07/29 00:46:04;;;;;;;1.05;0.50;;;;;;;17.24;71.97;101297.28;5048839;28;20037;-68
2022/07/29 00:48:30;;;;;;;0.50;0.50;;;;;;;17.22;72.03;101301.53;5033428;28;20374;-68
2022/07/29 00:51:01;;;;;;;0.43;0.43;;;;;;;17.23;71.56;101297.66;5033298;28;20405;-68
2022/07/29 00:53:26;;;;;;;0.88;0.70;;;;;;;17.17;72.04;101294.50;5031426;28;20091;-68
2022/07/29 00:55:55;;;;;;;0.88;0.50;;;;;;;17.21;71.65;101298.03;5044611;28;20045;-68
2022/07/29 00:58:21;;;;;;;0.98;0.52;;;;;;;17.25;71.37;101296.09;5035499;28;20029;-68
2022/07/29 01:00:46;;;;;;;2.97;0.80;;;;;;;17.20;71.06;101299.22;5053200;28;20025;-68
2022/07/29 01:03:12;;;;;;;2.03;0.65;;;;;;;17.13;71.08;101305.38;5051650;28;20025;-68
2022/07/29 01:05:40;;;;;;;2.22;0.65;;;;;;;17.12;71.54;101297.63;5033631;28;20066;-68
2022/07/29 01:08:06;;;;;;;2.50;0.93;;;;;;;17.16;71.19;101295.69;5031852;28;20033;-68
2022/07/29 01:10:33;;;;;;;1.67;0.47;;;;;;;17.17;71.25;101293.75;5033037;28;20037;-69
2022/07/29 01:13:01;;;;;;;0.95;0.70;;;;;;;17.15;71.26;101292.19;5033083;28;20029;-68
2022/07/29 01:15:27;;;;;;;1.15;0.60;;;;;;;17.16;71.30;101290.25;5052139;28;20458;-68
2022/07/29 01:17:58;;;;;;;0.98;0.60;;;;;;;17.19;71.71;101288.69;5051684;28;20065;-68
2022/07/29 01:20:49;;;;;;;1.17;0.73;;;;;;;17.14;72.13;101295.28;5051348;28;20527;-68
2022/07/29 01:23:35;;;;;;;4.18;1.02;;;;;;;17.11;72.24;101290.63;5041322;28;20049;-68
2022/07/29 01:26:27;;;;;;;1.15;0.70;;;;;;;17.06;72.28;101282.81;5030637;28;20044;-68
2022/07/29 01:29:05;;;;;;;0.73;0.57;;;;;;;17.06;72.58;101282.81;5031279;28;20132;-68
2022/07/29 01:31:58;;;;;;;0.75;0.50;;;;;;;16.99;72.51;101277.34;5042224;28;20444;-68
2022/07/29 01:34:41;;;;;;;2.97;0.98;;;;;;;17.00;72.30;101274.22;5039856;28;20115;-68
2022/07/29 01:37:23;;;;;;;1.17;0.63;;;;;;;16.81;73.43;101271.03;5031946;28;20025;-68
2022/07/29 01:39:52;;;;;;;1.05;0.65;;;;;;;16.85;73.80;101269.09;5036502;28;20551;-68
2022/07/29 01:42:38;;;;;;;1.13;0.60;;;;;;;16.82;73.67;101267.16;5052538;28;20562;-68
2022/07/29 01:45:30;;;;;;;0.85;0.57;;;;;;;16.92;73.48;101269.91;5050325;28;20039;-68
2022/07/29 01:48:03;;;;;;;0.75;0.70;;;;;;;16.91;73.45;101268.38;5044494;28;20044;-68
2022/07/29 01:50:53;;;;;;;0.90;0.63;;;;;;;16.93;73.57;101260.63;5052401;28;20028;-69
2022/07/29 01:53:42;;;;;;;1.92;0.68;;;;;;;16.97;72.88;101268.78;5052572;28;20032;-68
2022/07/29 01:56:10;;;;;;;1.52;0.70;;;;;;;16.96;72.93;101261.75;5043660;28;20025;-68
2022/07/29 01:58:40;;;;;;;1.00;0.55;;;;;;;16.99;73.02;101258.28;5032152;28;20091;-68
2022/07/29 02:01:08;;;;;;;1.50;0.70;;;;;;;16.94;72.89;101248.56;5032231;28;20108;-68
2022/07/29 02:03:36;;;;;;;2.58;0.85;;;;;;;16.85;73.61;101250.06;5031920;28;20060;-68
2022/07/29 02:06:04;;;;;;;1.02;0.60;;;;;;;16.85;73.53;101250.06;5037190;28;20123;-68
2022/07/29 02:08:33;;;;;;;0.80;0.57;;;;;;;16.74;74.10;101249.25;5052142;28;20505;-68
2022/07/29 02:11:00;;;;;;;0.98;0.88;;;;;;;16.76;74.52;101241.47;5051884;28;20188;-68
2022/07/29 02:13:28;;;;;;;6.78;0.88;;;;;;;16.85;74.30;101244.63;5048908;28;20075;-68
2022/07/29 02:15:57;;;;;;;3.08;0.98;;;;;;;16.88;73.56;101238.41;5013055;28;20102;-68
2022/07/29 02:18:27;;;;;;;1.13;0.50;;;;;;;16.73;74.27;101237.56;5031550;28;20029;-68
2022/07/29 02:20:56;;;;;;;1.75;0.95;;;;;;;16.75;74.22;101242.63;5031178;28;20033;-68
2022/07/29 02:23:23;;;;;;;3.97;0.90;;;;;;;16.73;75.19;101232.13;5031808;28;20039;-68
2022/07/29 02:25:54;;;;;;;1.27;0.80;;;;;;;16.69;74.92;101236.78;5032576;28;20086;-68
2022/07/29 02:28:23;;;;;;;1.33;0.63;;;;;;;16.77;75.11;101241.09;5051554;28;20037;-68
2022/07/29 02:30:51;;;;;;;4.15;0.70;;;;;;;16.73;74.89;101237.56;5051472;28;20029;-68
2022/07/29 02:33:18;;;;;;;3.15;0.57;;;;;;;16.69;74.98;101227.81;5049537;28;20033;-68
2022/07/29 02:35:45;;;;;;;0.90;0.63;;;;;;;16.65;75.50;101240.63;5044932;28;20078;-68
2022/07/29 02:41:01;;;;;;;1.27;0.77;;;;;;;16.68;75.08;101243.41;5051572;28;20151;-68
2022/07/29 02:43:28;;;;;;;0.88;0.80;;;;;;;16.70;75.86;101237.56;5037998;28;20037;-68
2022/07/29 02:45:56;;;;;;;1.83;0.60;;;;;;;16.68;75.85;101229.00;5030693;28;20033;-68
2022/07/29 02:48:31;;;;;;;2.58;0.70;;;;;;;16.62;75.96;101236.75;5031151;28;20091;-68
2022/07/29 02:51:05;;;;;;;1.25;0.70;;;;;;;16.62;75.62;101236.75;5031154;28;20454;-68
2022/07/29 02:53:33;;;;;;;1.73;0.82;;;;;;;16.59;75.79;101229.34;5030891;28;20128;-68
2022/07/29 02:56:21;;;;;;;0.70;0.50;;;;;;;16.60;75.96;101235.56;5030504;28;20061;-68
2022/07/29 02:58:54;;;;;;;0.80;0.65;;;;;;;16.60;76.77;101232.84;5031106;28;20088;-68
2022/07/29 03:01:23;;;;;;;3.92;0.75;;;;;;;16.61;76.33;101229.75;5050753;28;20112;-68
2022/07/29 03:03:53;;;;;;;1.20;0.70;;;;;;;16.70;75.70;101221.25;5049453;28;20032;-68
2022/07/29 03:06:22;;;;;;;1.42;0.80;;;;;;;16.65;76.29;101219.66;5049310;28;20045;-68
2022/07/29 03:08:49;;;;;;;1.00;0.70;;;;;;;16.75;75.84;101218.16;5049507;28;20041;-68
2022/07/29 03:11:15;;;;;;;2.22;1.13;;;;;;;16.69;76.03;101219.66;5050647;28;20033;-68
2022/07/29 03:13:42;;;;;;;2.05;0.90;;;;;;;16.68;75.95;101213.47;5049400;28;20116;-68
2022/07/29 03:16:08;;;;;;;1.60;0.70;;;;;;;16.70;75.71;101210.38;5054524;28;20047;-68
2022/07/29 03:18:34;;;;;;;0.70;0.60;;;;;;;16.71;76.13;101214.63;5038218;28;20559;-68
2022/07/29 03:21:00;;;;;;;0.73;0.60;;;;;;;16.76;75.87;101215.03;5036170;28;20405;-68
2022/07/29 03:23:27;;;;;;;0.80;0.50;;;;;;;16.76;76.06;101208.84;5037044;28;20033;-67
2022/07/29 03:25:54;;;;;;;3.47;0.82;;;;;;;16.73;76.31;101213.09;5048797;28;20497;-68
2022/07/29 03:28:20;;;;;;;1.83;0.98;;;;;;;16.72;76.39;101217.00;5057301;28;20044;-68
2022/07/29 03:30:46;;;;;;;2.67;0.90;;;;;;;16.68;76.35;101212.69;5057422;28;20029;-68
2022/07/29 03:33:12;;;;;;;2.75;1.17;;;;;;;16.72;76.34;101211.53;5046390;28;20268;-68
2022/07/29 03:35:38;;;;;;;1.40;1.00;;;;;;;16.76;76.13;101215.03;5036540;28;20033;-68
2022/07/29 03:38:03;;;;;;;0.75;0.68;;;;;;;16.81;75.92;101211.97;5037680;28;20037;-68
2022/07/29 03:40:35;;;;;;;1.10;0.75;;;;;;;16.80;76.16;101210.38;5044453;28;20037;-68
2022/07/29 03:43:02;;;;;;;0.68;0.60;;;;;;;16.73;76.38;101206.88;5057256;28;20112;-68
2022/07/29 03:45:30;;;;;;;1.33;0.80;;;;;;;16.80;76.17;101201.47;5055243;28;20044;-68
2022/07/29 03:48:01;;;;;;;2.38;0.85;;;;;;;16.79;75.82;101208.84;5054024;28;20481;-68
2022/07/29 03:50:28;;;;;;;3.00;0.80;;;;;;;16.75;76.17;101212.69;5057051;28;20540;-68
2022/07/29 03:52:54;;;;;;;1.08;0.77;;;;;;;16.79;76.45;101208.06;5057391;28;20051;-68
2022/07/29 03:55:20;;;;;;;1.83;0.95;;;;;;;16.76;76.61;101215.03;5056734;28;20021;-68
2022/07/29 03:57:47;;;;;;;2.55;0.88;;;;;;;16.68;77.02;101208.03;5049911;28;20033;-68
2022/07/29 04:00:15;;;;;;;1.60;0.88;;;;;;;16.61;76.68;101218.06;5037068;28;20037;-67
2022/07/29 04:02:44;;;;;;;0.77;0.70;;;;;;;16.71;76.56;101209.97;5035864;28;20033;-68
2022/07/29 04:05:14;;;;;;;2.70;0.80;;;;;;;16.79;76.75;101210.78;5036167;28;20116;-68
2022/07/29 04:07:43;;;;;;;0.98;0.75;;;;;;;16.81;76.39;101211.19;5049685;28;20033;-68
2022/07/29 04:10:09;;;;;;;1.23;0.80;;;;;;;16.83;76.28;101209.63;5057260;28;20048;-68
2022/07/29 04:12:34;;;;;;;1.58;1.05;;;;;;;16.86;76.24;101205.38;5056695;28;20064;-68
2022/07/29 04:15:01;;;;;;;1.25;0.70;;;;;;;16.81;76.41;101206.53;5054527;28;20029;-68
2022/07/29 04:17:27;;;;;;;0.70;0.55;;;;;;;16.84;76.42;101208.47;5037470;28;20061;-68
2022/07/29 04:19:52;;;;;;;1.85;0.70;;;;;;;16.91;76.11;101208.50;5036889;28;20061;-68
2022/07/29 04:22:18;;;;;;;0.80;0.80;;;;;;;16.92;76.58;101203.81;5035697;28;20048;-68
2022/07/29 04:24:43;;;;;;;1.60;0.82;;;;;;;16.87;76.36;101193.31;5040967;28;20420;-68
2022/07/29 04:27:09;;;;;;;3.42;1.30;;;;;;;16.98;76.34;101199.56;5053950;28;20102;-68
2022/07/29 04:29:34;;;;;;;2.10;0.98;;;;;;;17.01;76.41;101202.28;5053681;28;20068;-68
2022/07/29 04:32:00;;;;;;;1.15;0.75;;;;;;;16.94;76.40;101210.44;5052545;28;20048;-68
2022/07/29 04:34:26;;;;;;;2.33;0.85;;;;;;;17.03;76.07;101201.94;5025870;28;20490;-68
2022/07/29 04:36:51;;;;;;;2.55;0.73;;;;;;;17.03;76.86;101196.50;5032854;28;20033;-68
2022/07/29 04:39:18;;;;;;;1.63;0.88;;;;;;;17.16;75.96;101200.41;5033657;28;20453;-68
2022/07/29 04:41:44;;;;;;;0.98;0.88;;;;;;;17.14;75.96;101197.28;5033525;28;20478;-67
2022/07/29 04:44:09;;;;;;;2.55;0.90;;;;;;;17.14;75.93;101197.28;5049731;28;20116;-68
2022/07/29 04:46:35;;;;;;;1.58;0.68;;;;;;;17.26;75.94;101194.22;5052865;28;20041;-67
2022/07/29 04:49:02;;;;;;;1.73;0.82;;;;;;;17.29;75.87;101198.88;5053675;28;20059;-68
2022/07/29 04:51:28;;;;;;;0.80;0.55;;;;;;;17.27;75.84;101203.13;5039197;28;20104;-68
2022/07/29 04:53:53;;;;;;;0.80;0.70;;;;;;;17.32;75.38;101202.78;5032016;28;20132;-68
2022/07/29 04:56:19;;;;;;;1.80;0.95;;;;;;;17.41;75.68;101205.88;5031088;28;20069;-68
2022/07/29 04:58:45;;;;;;;2.17;0.88;;;;;;;17.42;75.14;101205.50;5033283;28;20021;-68
2022/07/29 05:01:11;;;;;;;0.90;0.60;;;;;;;17.48;75.44;101208.63;5041535;28;20033;-68
2022/07/29 05:03:36;;;;;;;0.80;0.55;;;;;;;17.43;75.86;101203.56;5053230;28;20028;-68
2022/07/29 05:06:02;;;;;;;4.47;0.70;;;;;;;17.49;75.32;101207.50;5052376;28;20174;-68
2022/07/29 05:08:27;;;;;;;1.15;0.80;;;;;;;17.55;75.21;101209.47;5049605;28;20041;-68
2022/07/29 05:10:53;;;;;;;3.25;1.02;;;;;;;17.63;75.34;101204.78;5052657;28;20040;-67
2022/07/29 05:13:18;;;;;;;4.60;0.73;;;;;;;17.65;75.26;101216.06;5052966;28;20076;-68
2022/07/29 05:15:44;;;;;;;2.05;0.82;;;;;;;17.65;74.88;101214.09;5052061;28;20029;-68
2022/07/29 05:18:09;;;;;;;1.10;0.82;;;;;;;17.73;74.87;101212.19;5033640;28;20041;-68
2022/07/29 05:20:35;;;;;;;3.63;0.77;;;;;;;17.80;75.10;101223.88;5032770;28;20512;-68
2022/07/29 05:23:01;;;;;;;2.13;0.68;;;;;;;17.86;74.81;101227.75;5033015;28;20127;-68
2022/07/29 05:25:28;;;;;;;2.03;0.77;;;;;;;17.88;74.72;101222.69;5032609;28;20124;-68
2022/07/29 05:27:54;;;;;;;1.33;0.75;;;;;;;17.94;74.03;101225.81;5051533;28;20033;-68
2022/07/29 05:30:20;;;;;;;3.35;0.90;;;;;;;17.95;73.72;101230.88;5050946;28;20098;-68
2022/07/29 05:32:46;;;;;;;1.70;0.85;;;;;;;18.08;74.04;101230.47;5052680;28;20342;-68
2022/07/29 05:35:13;;;;;;;2.25;0.82;;;;;;;18.10;74.16;101230.88;5035855;28;20068;-68
2022/07/29 05:37:38;;;;;;;0.70;0.43;;;;;;;18.13;74.18;101230.84;5032577;28;20540;-68
2022/07/29 05:40:04;;;;;;;1.40;0.73;;;;;;;18.17;74.01;101225.38;5030771;28;20029;-68
2022/07/29 05:42:30;;;;;;;2.78;0.80;;;;;;;18.21;74.30;101232.41;5032988;28;20038;-68
2022/07/29 05:44:56;;;;;;;0.82;0.80;;;;;;;18.26;73.64;101228.47;5045929;28;20043;-68
2022/07/29 05:47:22;;;;;;;3.05;0.80;;;;;;;18.29;73.83;101230.44;5051234;28;20048;-68
2022/07/29 05:49:48;;;;;;;2.17;0.88;;;;;;;18.36;74.58;101235.88;5052066;28;20093;-68
2022/07/29 05:52:14;;;;;;;0.98;0.63;;;;;;;18.38;74.51;101239.00;5044886;28;20025;-68
2022/07/29 05:54:39;;;;;;;1.40;0.70;;;;;;;18.63;74.30;101239.72;5032001;28;20501;-68
2022/07/29 05:57:05;;;;;;;1.85;0.77;;;;;;;18.97;73.81;101240.00;5032138;28;20095;-68
2022/07/29 05:59:34;;;;;;;3.00;1.00;;;;;;;19.29;72.94;101238.66;5031877;28;20033;-68
2022/07/29 06:02:00;;;;;;;1.77;0.82;;;;;;;19.67;71.46;101231.41;5040121;28;20082;-68
2022/07/29 06:04:26;;;;;;;0.90;0.65;;;;;;;20.02;70.15;101239.31;5050476;28;20036;-68
2022/07/29 06:06:51;;;;;;;0.90;0.63;;;;;;;20.26;68.02;101240.31;5051619;28;20040;-68
2022/07/29 06:09:17;;;;;;;1.52;0.73;;;;;;;20.36;66.84;101237.44;5051645;28;20538;-68
2022/07/29 06:11:42;;;;;;;1.95;0.85;;;;;;;20.61;67.31;101228.97;5050376;28;20043;-68
2022/07/29 06:14:08;;;;;;;2.30;0.40;;;;;;;20.67;65.28;101230.09;5051597;28;20486;-68
2022/07/29 06:16:33;;;;;;;0.73;0.50;;;;;;;20.64;64.53;101228.16;5049911;28;20094;-68
2022/07/29 06:18:59;;;;;;;3.50;0.90;;;;;;;20.59;65.45;101234.88;5048663;28;20041;-68
2022/07/29 06:21:25;;;;;;;1.10;0.73;;;;;;;20.55;65.81;101230.59;5051889;28;20489;-68
2022/07/29 06:23:50;;;;;;;1.27;0.82;;;;;;;20.33;65.85;101227.31;5051387;28;20025;-68
2022/07/29 06:26:16;;;;;;;1.35;0.70;;;;;;;20.29;65.61;101231.25;5050778;28;20033;-68
2022/07/29 06:28:41;;;;;;;2.13;0.73;;;;;;;20.26;66.08;101232.09;5046467;28;20048;-68
2022/07/29 06:31:07;;;;;;;0.40;0.40;;;;;;;20.23;67.00;101224.69;5031538;28;20108;-68
2022/07/29 06:33:33;;;;;;;1.75;0.98;;;;;;;20.17;67.61;101231.78;5030271;28;20037;-68
2022/07/29 06:35:59;;;;;;;0.90;0.60;;;;;;;20.15;67.11;101236.88;5029641;28;20462;-68
2022/07/29 06:38:25;;;;;;;6.47;0.98;;;;;;;20.22;67.72;101232.13;5031343;28;20490;-68
2022/07/29 06:41:03;;;;;;;1.00;0.65;;;;;;;20.34;68.00;101228.84;5031173;28;20087;-68
2022/07/29 06:43:37;;;;;;;0.65;0.65;;;;;;;20.46;67.05;101233.81;5030055;28;20509;-68
2022/07/29 06:46:06;;;;;;;1.60;0.50;;;;;;;20.53;66.53;101231.03;5033273;28;20037;-68
2022/07/29 06:48:33;;;;;;;1.60;0.65;;;;;;;20.58;66.05;101241.50;5050824;28;20056;-68
2022/07/29 06:50:59;;;;;;;0.80;0.55;;;;;;;20.55;66.40;101227.88;5050234;28;20486;-68
2022/07/29 06:53:26;;;;;;;2.35;0.50;;;;;;;20.59;66.59;101228.63;5049773;28;20033;-68
2022/07/29 06:55:52;;;;;;;0.75;0.45;;;;;;;20.62;66.70;101230.53;5048732;28;20124;-68
2022/07/29 06:58:20;;;;;;;1.38;0.50;;;;;;;20.57;67.28;101230.97;5050661;28;20104;-68
2022/07/29 07:00:54;;;;;;;0.85;0.63;;;;;;;20.64;67.91;101234.41;5049998;28;20025;-68
2022/07/29 07:03:20;;;;;;;1.65;0.80;;;;;;;20.77;67.98;101231.16;5049593;28;20045;-68
2022/07/29 07:05:46;;;;;;;2.40;0.85;;;;;;;20.86;67.75;101226.72;5037168;28;20036;-68
2022/07/29 07:08:12;;;;;;;2.20;0.55;;;;;;;20.93;67.64;101226.63;5030970;28;20461;-68
2022/07/29 07:10:38;;;;;;;1.20;0.75;;;;;;;20.97;67.48;101219.13;5029673;28;20060;-68
2022/07/29 07:13:05;;;;;;;1.00;0.70;;;;;;;20.95;67.62;101217.97;5037402;28;20112;-68
2022/07/29 07:15:30;;;;;;;0.95;0.75;;;;;;;21.03;67.35;101220.25;5048552;28;20036;-68
2022/07/29 07:17:57;;;;;;;0.40;0.40;;;;;;;21.13;67.19;101218.56;5049964;28;20048;-68
2022/07/29 07:20:23;;;;;;;2.22;0.52;;;;;;;21.25;67.62;101220.75;5049259;28;20363;-68
2022/07/29 07:22:48;;;;;;;0.80;0.57;;;;;;;21.33;67.38;101220.22;5050714;28;20041;-68
2022/07/29 07:25:14;;;;;;;0.77;0.65;;;;;;;21.36;66.54;101211.19;5048827;28;20021;-68
2022/07/29 07:27:39;;;;;;;0.95;0.60;;;;;;;21.32;66.52;101215.16;5049590;28;20033;-68
2022/07/29 07:30:06;;;;;;;0.93;0.80;;;;;;;21.25;66.99;101207.03;5049279;28;20028;-68
2022/07/29 07:32:35;;;;;;;1.98;1.50;;;;;;;21.28;66.99;101215.22;5011265;28;20037;-68
2022/07/29 07:35:00;;;;;;;0.68;0.57;;;;;;;21.36;66.78;101210.41;5024291;28;20029;-68
2022/07/29 07:37:26;;;;;;;2.65;1.10;;;;;;;21.41;67.18;101207.97;5030762;28;20048;-68
2022/07/29 07:39:52;;;;;;;2.00;0.60;;;;;;;21.45;66.90;101210.66;5033498;28;20396;-68
2022/07/29 07:42:18;;;;;;;1.70;0.75;;;;;;;21.43;66.29;101204.81;5049415;28;20044;-68
2022/07/29 07:44:45;;;;;;;4.40;0.80;;;;;;;21.43;66.98;101204.81;5050071;28;20028;-68
2022/07/29 07:47:12;;;;;;;0.90;0.73;;;;;;;21.46;67.15;101210.25;5036137;28;20477;-68
2022/07/29 07:49:37;;;;;;;0.65;0.45;;;;;;;21.58;66.66;101208.13;5030656;28;20466;-68
2022/07/29 07:52:04;;;;;;;1.98;0.63;;;;;;;21.61;66.94;101210.78;5029314;28;20045;-68
2022/07/29 07:54:29;;;;;;;0.63;0.47;;;;;;;21.77;66.35;101212.88;5038496;28;20128;-68
2022/07/29 07:56:55;;;;;;;1.50;0.70;;;;;;;21.93;66.39;101199.34;5049813;28;20107;-68
2022/07/29 07:59:20;;;;;;;2.70;0.60;;;;;;;22.16;66.02;101207.53;5050602;28;20420;-68
2022/07/29 08:01:46;;;;;;;1.02;0.43;;;;;;;22.42;65.45;101204.69;5051865;28;20440;-68
2022/07/29 08:04:11;;;;;;;1.85;0.75;;;;;;;22.71;64.51;101213.16;5036672;28;20029;-68
2022/07/29 08:06:37;;;;;;;0.80;0.30;;;;;;;22.98;64.29;101202.75;5032390;28;20040;-68
2022/07/29 08:09:03;;;;;;;1.42;0.43;;;;;;;23.24;62.85;101209.25;5032440;28;20399;-68
2022/07/29 08:11:30;;;;;;;0.80;0.70;;;;;;;23.45;61.55;101202.50;5034369;28;20450;-68
2022/07/29 08:13:55;;;;;;;2.50;0.70;;;;;;;23.56;61.16;101216.78;5048297;28;20033;-68
2022/07/29 08:18:48;;;;;;;0.65;0.47;;;;;;;23.61;58.93;101200.56;4990330;28;20046;-68
2022/07/29 08:21:15;;;;;;;1.38;0.57;;;;;;;23.71;60.09;101198.75;4993199;28;20039;-69
2022/07/29 08:23:45;;;;;;;0.82;0.60;;;;;;;23.85;60.05;101198.38;4993552;28;20022;-72
2022/07/29 08:26:12;;;;;;;1.50;0.70;;;;;;;23.99;60.13;101200.75;4986910;28;20056;-68
2022/07/29 08:28:39;;;;;;;0.98;0.70;;;;;;;24.18;57.92;101189.66;4975255;28;20118;-70
2022/07/29 08:31:05;;;;;;;3.50;0.60;;;;;;;24.30;56.62;101196.41;4974975;28;20407;-70
2022/07/29 08:33:30;;;;;;;1.67;0.70;;;;;;;24.39;58.01;101202.06;4969177;28;20027;-70
2022/07/29 08:35:56;;;;;;;0.90;0.75;;;;;;;24.45;56.50;101207.84;4972978;28;20038;-70
2022/07/29 08:38:21;;;;;;;0.43;0.43;;;;;;;24.49;55.73;101202.97;4974588;28;20022;-69
2022/07/29 08:40:47;;;;;;;0.60;0.55;;;;;;;24.61;56.28;101208.53;4974678;28;20041;-69
2022/07/29 08:43:13;;;;;;;1.15;0.60;;;;;;;24.76;55.42;101206.94;4974671;28;20037;-69
2022/07/29 08:45:42;;;;;;;1.75;0.77;;;;;;;24.87;54.99;101203.88;4972694;28;20102;-69
2022/07/29 08:48:07;;;;;;;0.63;0.52;;;;;;;25.01;54.38;101206.19;4974820;28;20114;-69
2022/07/29 08:50:35;;;;;;;1.42;0.52;;;;;;;25.22;54.24;101193.75;4971237;28;20438;-70
2022/07/29 08:53:01;;;;;;;0.60;0.60;;;;;;;25.39;54.94;101197.94;4955168;28;20050;-69
2022/07/29 08:55:27;;;;;;;2.22;0.90;;;;;;;25.52;54.17;101202.25;4968947;28;20500;-70
2022/07/29 08:57:54;;;;;;;1.48;0.63;;;;;;;25.51;52.92;101197.19;4957334;28;20031;-69
2022/07/29 09:00:21;;;;;;;0.60;0.60;;;;;;;25.60;52.75;101197.28;4974532;28;20049;-70
2022/07/29 09:02:54;;;;;;;0.55;0.45;;;;;;;25.65;54.34;101191.19;4973167;28;20023;-70
2022/07/29 09:05:20;;;;;;;0.45;0.45;;;;;;;25.71;53.91;101192.16;4972637;28;20031;-69
2022/07/29 09:07:47;;;;;;;3.05;0.77;;;;;;;25.75;53.48;101195.56;4971903;28;20101;-69
2022/07/29 09:10:13;;;;;;;0.88;0.60;;;;;;;25.76;51.40;101200.66;4972917;28;20133;-69
2022/07/29 09:12:39;;;;;;;1.05;0.80;;;;;;;25.93;51.49;101198.53;4973913;28;20121;-69
2022/07/29 09:15:05;;;;;;;0.50;0.47;;;;;;;25.91;50.89;101195.44;4972655;28;20450;-69
2022/07/29 09:17:48;;;;;;;1.00;0.60;;;;;;;26.10;51.29;101199.91;4983032;28;20037;-69
2022/07/29 09:20:15;;;;;;;0.50;0.50;;;;;;;26.41;52.11;101203.53;4976241;28;20402;-69
2022/07/29 09:22:40;;;;;;;0.75;0.63;;;;;;;26.65;51.34;101199.09;4993202;28;20106;-70
2022/07/29 09:25:06;;;;;;;1.80;0.60;;;;;;;26.85;51.17;101198.78;4975596;28;20121;-70
2022/07/29 09:27:33;;;;;;;0.93;0.60;;;;;;;26.89;49.34;101204.19;4993641;28;20022;-72
2022/07/29 09:30:05;;;;;;;1.13;0.52;;;;;;;26.82;49.00;101201.69;4989827;28;20043;-69
2022/07/29 09:32:31;;;;;;;1.05;0.70;;;;;;;26.77;49.14;101201.03;4974073;28;20444;-69
2022/07/29 09:35:20;;;;;;;1.10;0.70;;;;;;;26.43;48.78;101184.53;4971892;28;20082;-69
2022/07/29 09:37:46;;;;;;;1.10;0.60;;;;;;;26.46;49.87;101191.16;4975570;28;20026;-69
2022/07/29 09:40:27;;;;;;;1.08;0.50;;;;;;;26.49;50.28;101185.50;4975787;28;20036;-69
2022/07/29 09:42:56;;;;;;;1.05;0.50;;;;;;;26.47;50.30;101187.16;4993548;28;20035;-69
2022/07/29 09:45:29;;;;;;;1.05;0.70;;;;;;;26.53;50.79;101193.66;4992261;28;20036;-69
2022/07/29 09:47:57;;;;;;;2.13;1.00;;;;;;;26.52;51.16;101198.41;4971468;28;20030;-69
2022/07/29 09:50:25;;;;;;;0.68;0.57;;;;;;;26.51;49.47;101190.56;4973474;28;20034;-69
2022/07/29 09:52:53;;;;;;;0.50;0.40;;;;;;;26.49;47.84;101190.25;4973546;28;20042;-70
2022/07/29 09:55:19;;;;;;;1.42;0.60;;;;;;;26.36;47.02;101186.78;4972641;28;20023;-69
2022/07/29 09:57:46;;;;;;;3.53;0.52;;;;;;;26.40;47.18;101187.41;4982645;28;20438;-69
2022/07/29 10:00:15;;;;;;;1.65;0.63;;;;;;;26.49;46.40;101193.78;4992522;28;20018;-69
2022/07/29 10:02:43;;;;;;;2.92;0.75;;;;;;;26.55;46.66;101194.75;4992626;28;20034;-69
2022/07/29 10:05:21;;;;;;;0.40;0.32;;;;;;;26.52;46.82;101195.63;4991367;28;20037;-69
2022/07/29 10:07:47;;;;;;;0.88;0.40;;;;;;;26.59;46.74;101191.84;4991497;28;20042;-69
2022/07/29 10:10:25;;;;;;;1.30;0.68;;;;;;;26.64;46.87;101191.25;4975272;28;20026;-69
2022/07/29 10:12:56;;;;;;;1.00;0.75;;;;;;;26.68;47.38;101195.44;4990498;28;20042;-69
2022/07/29 10:15:24;;;;;;;0.50;0.50;;;;;;;26.69;47.05;101193.44;4972515;28;20035;-69
2022/07/29 10:17:51;;;;;;;1.48;0.60;;;;;;;26.70;47.21;101190.25;4973167;28;20403;-70
2022/07/29 10:20:17;;;;;;;1.40;0.52;;;;;;;26.70;47.36;101179.19;4972828;28;20403;-68
2022/07/29 10:22:43;;;;;;;2.88;0.40;;;;;;;26.64;47.65;101182.97;4992438;28;20065;-69
2022/07/29 10:25:10;;;;;;;0.98;0.55;;;;;;;26.70;47.74;101181.97;4990579;28;20038;-70
2022/07/29 10:27:36;;;;;;;1.17;0.75;;;;;;;26.77;48.36;101173.38;4974710;28;20046;-69
2022/07/29 10:30:06;;;;;;;0.60;0.60;;;;;;;26.67;47.76;101177.28;4987916;28;20077;-69
2022/07/29 10:32:57;;;;;;;1.77;0.50;;;;;;;26.72;47.77;101170.44;4972822;28;20026;-69
2022/07/29 10:35:25;;;;;;;;;;;;;;;26.70;47.62;101175.66;4989061;28;20121;-70
2022/07/29 10:38:15;;;;;;;1.20;0.57;;;;;;;26.69;47.27;101169.31;4992114;28;19910;-69
2022/07/29 10:41:28;;;;;;;0.65;0.47;;;;;;;26.73;48.15;101166.47;4991484;28;20030;-69
2022/07/29 10:44:02;;;;;;;0.57;0.47;;;;;;;26.72;48.21;101165.69;4969200;28;20050;-69
2022/07/29 10:46:28;;;;;;;1.08;0.63;;;;;;;26.78;48.50;101171.41;4973689;28;20042;-69
2022/07/29 10:49:11;;;;;;;0.80;0.52;;;;;;;26.67;47.05;101166.22;4975840;28;20058;-70
2022/07/29 10:51:58;;;;;;;0.40;0.40;;;;;;;26.74;47.61;101154.94;4972468;28;20153;-70
2022/07/29 10:54:33;;;;;;;0.73;0.68;;;;;;;26.85;46.96;101149.00;4972706;28;20091;-69
2022/07/29 10:57:16;;;;;;;0.70;0.65;;;;;;;26.92;47.44;101150.72;4972064;28;20079;-69
2022/07/29 10:59:45;;;;;;;1.67;0.80;;;;;;;27.10;47.10;101159.84;4970907;28;20058;-69
2022/07/29 11:02:32;;;;;;;2.47;0.63;;;;;;;27.30;46.96;101153.91;4955359;28;20042;-68
2022/07/29 11:04:57;;;;;;;1.15;0.60;;;;;;;27.48;46.93;101140.16;4971215;28;20122;-69
2022/07/29 11:07:23;;;;;;;2.70;0.47;;;;;;;27.68;45.79;101144.03;4971805;28;20117;-69
2022/07/29 11:10:16;;;;;;;0.52;0.40;;;;;;;28.01;46.33;101143.47;4971106;28;20069;-70
2022/07/29 11:12:46;;;;;;;0.77;0.52;;;;;;;27.99;44.69;101141.13;4972548;28;20031;-69
2022/07/29 11:15:20;;;;;;;0.77;0.60;;;;;;;28.21;44.16;101144.50;4971827;28;20027;-70
2022/07/29 11:18:00;;;;;;;2.58;0.68;;;;;;;28.46;43.99;101133.06;4972106;28;20078;-70
2022/07/29 11:20:44;;;;;;;1.17;0.50;;;;;;;28.71;44.00;101137.47;4972135;28;20372;-70
2022/07/29 11:23:28;;;;;;;1.27;0.55;;;;;;;28.83;43.86;101144.84;4971021;28;20031;-69
2022/07/29 11:29:06;;;;;;;1.42;0.60;;;;;;;28.74;43.08;101135.78;4971739;28;20039;-68
2022/07/29 11:31:36;;;;;;;3.20;0.70;;;;;;;28.66;43.03;101140.91;4969842;28;20062;-70
2022/07/29 11:34:35;;;;;;;0.77;0.52;;;;;;;28.59;42.01;101135.66;4991232;28;20438;-69
2022/07/29 11:37:07;;;;;;;1.20;0.65;;;;;;;28.61;42.89;101135.22;4954292;28;20038;-69
2022/07/29 11:39:34;;;;;;;0.70;0.50;;;;;;;28.58;41.90;101125.03;4977670;28;20135;-69
2022/07/29 11:42:21;;;;;;;1.15;0.70;;;;;;;28.61;42.38;101126.91;4995548;28;20034;-69